createdAt,value
2023-09-09T00:00:52.653Z,17.79
2023-09-09T00:01:52.618Z,17.84
2023-09-09T00:02:52.670Z,17.75
2023-09-09T00:03:52.766Z,17.8
2023-09-09T00:04:52.642Z,17.91
2023-09-09T00:05:52.584Z,17.87
2023-09-09T00:06:52.681Z,17.87
2023-09-09T00:07:52.554Z,17.79
2023-09-09T00:08:52.624Z,17.81
2023-09-09T00:09:52.679Z,17.91
2023-09-09T00:10:52.624Z,17.85
2023-09-09T00:11:52.628Z,17.89
2023-09-09T00:12:52.749Z,17.91
2023-09-09T00:13:52.528Z,18.02
2023-09-09T00:14:52.646Z,17.94
2023-09-09T00:15:52.579Z,17.81
2023-09-09T00:16:52.721Z,17.96
2023-09-09T00:17:52.705Z,17.92
2023-09-09T00:18:52.565Z,17.98
2023-09-09T00:19:52.558Z,17.97
2023-09-09T00:20:52.571Z,18
2023-09-09T00:21:52.589Z,18
2023-09-09T00:22:52.623Z,18.04
2023-09-09T00:23:52.599Z,18.08
2023-09-09T00:24:52.620Z,18.12
2023-09-09T00:25:52.632Z,18.12
2023-09-09T00:26:52.656Z,18.21
2023-09-09T00:27:52.651Z,18.21
2023-09-09T00:28:52.746Z,18.04
2023-09-09T00:29:52.683Z,18.04
2023-09-09T00:30:52.672Z,18.07
2023-09-09T00:31:52.625Z,18.12
2023-09-09T00:32:52.600Z,17.91
2023-09-09T00:33:52.602Z,17.89
2023-09-09T00:34:52.599Z,17.99
2023-09-09T00:35:52.622Z,17.98
2023-09-09T00:36:52.604Z,17.9
2023-09-09T00:37:52.657Z,17.78
2023-09-09T00:38:52.610Z,17.84
2023-09-09T00:39:52.616Z,17.95
2023-09-09T00:40:52.626Z,17.86
2023-09-09T00:41:52.644Z,17.96
2023-09-09T00:42:52.649Z,17.97
2023-09-09T00:43:52.655Z,18.14
2023-09-09T00:44:52.672Z,18.16
2023-09-09T00:45:52.720Z,18.19
2023-09-09T00:46:52.687Z,18.18
2023-09-09T00:47:52.626Z,18.16
2023-09-09T00:48:52.582Z,18.18
2023-09-09T00:49:52.736Z,18.13
2023-09-09T00:50:52.689Z,18.17
2023-09-09T00:51:52.608Z,18.22
2023-09-09T00:52:52.695Z,18.12
2023-09-09T00:53:52.641Z,18.12
2023-09-09T00:54:52.692Z,18.01
2023-09-09T00:55:52.631Z,18.01
2023-09-09T00:56:52.654Z,18.01
2023-09-09T00:57:52.674Z,18.01
2023-09-09T00:58:52.629Z,18.01
2023-09-09T00:59:52.559Z,18.01
2023-09-09T01:00:52.542Z,18.12
2023-09-09T01:01:52.779Z,18.01
2023-09-09T01:02:53.012Z,18.01
2023-09-09T01:03:52.784Z,18.12
2023-09-09T01:04:52.630Z,18.12
2023-09-09T01:05:52.636Z,18.12
2023-09-09T01:06:52.702Z,18.01
2023-09-09T01:07:52.655Z,18.12
2023-09-09T01:08:52.601Z,18.12
2023-09-09T01:09:52.643Z,18.12
2023-09-09T01:10:52.581Z,17.91
2023-09-09T01:11:52.669Z,17.91
2023-09-09T01:12:52.581Z,17.91
2023-09-09T01:13:52.682Z,17.8
2023-09-09T01:14:52.695Z,17.8
2023-09-09T01:15:52.593Z,17.7
2023-09-09T01:16:52.665Z,17.8
2023-09-09T01:17:52.686Z,17.8
2023-09-09T01:18:52.673Z,17.8
2023-09-09T01:19:52.572Z,17.8
2023-09-09T01:20:52.580Z,17.8
2023-09-09T01:21:52.779Z,17.8
2023-09-09T01:22:52.644Z,17.7
2023-09-09T01:23:52.609Z,17.6
2023-09-09T01:24:52.642Z,17.6
2023-09-09T01:25:52.645Z,17.6
2023-09-09T01:26:52.620Z,17.6
2023-09-09T01:27:52.635Z,17.6
2023-09-09T01:28:52.573Z,17.6
2023-09-09T01:29:52.666Z,17.7
2023-09-09T01:30:52.584Z,17.6
2023-09-09T01:31:52.591Z,17.6
2023-09-09T01:32:52.749Z,17.7
2023-09-09T01:33:52.685Z,17.8
2023-09-09T01:34:52.570Z,17.7
2023-09-09T01:35:52.592Z,17.6
2023-09-09T01:36:52.555Z,17.6
2023-09-09T01:37:52.642Z,17.7
2023-09-09T01:38:52.702Z,17.7
2023-09-09T01:39:52.641Z,17.7
2023-09-09T01:40:52.583Z,17.7
2023-09-09T01:41:52.566Z,17.6
2023-09-09T01:42:52.671Z,17.49
2023-09-09T01:43:52.579Z,17.49
2023-09-09T01:44:52.576Z,17.49
2023-09-09T01:45:52.685Z,17.49
2023-09-09T01:46:52.655Z,17.39
2023-09-09T01:47:52.658Z,17.49
2023-09-09T01:48:52.583Z,17.39
2023-09-09T01:49:52.570Z,17.39
2023-09-09T01:50:52.573Z,17.39
2023-09-09T01:51:52.644Z,17.39
2023-09-09T01:52:52.570Z,17.39
2023-09-09T01:53:52.575Z,17.49
2023-09-09T01:54:52.718Z,17.49
2023-09-09T01:55:52.666Z,17.49
2023-09-09T01:56:52.574Z,17.49
2023-09-09T01:57:52.693Z,17.49
2023-09-09T01:58:52.639Z,17.49
2023-09-09T01:59:52.632Z,17.49
2023-09-09T02:00:52.639Z,17.49
2023-09-09T02:01:52.660Z,17.39
2023-09-09T02:02:52.695Z,17.49
2023-09-09T02:03:52.837Z,17.39
2023-09-09T02:04:52.791Z,17.39
2023-09-09T02:05:52.742Z,17.39
2023-09-09T02:06:52.593Z,17.49
2023-09-09T02:07:52.619Z,17.39
2023-09-09T02:08:52.703Z,17.39
2023-09-09T02:09:52.629Z,17.39
2023-09-09T02:10:52.713Z,17.39
2023-09-09T02:11:52.722Z,17.29
2023-09-09T02:12:52.576Z,17.19
2023-09-09T02:15:52.650Z,17.19
2023-09-09T02:16:52.702Z,17.09
2023-09-09T02:17:52.681Z,16.99
2023-09-09T02:18:52.678Z,17.09
2023-09-09T02:19:52.663Z,17.09
2023-09-09T02:20:52.680Z,16.99
2023-09-09T02:21:52.682Z,16.79
2023-09-09T02:22:52.812Z,16.79
2023-09-09T02:23:52.602Z,16.79
2023-09-09T02:24:52.626Z,16.79
2023-09-09T02:25:52.679Z,16.79
2023-09-09T02:26:52.641Z,16.89
2023-09-09T02:27:52.726Z,16.89
2023-09-09T02:28:52.625Z,16.89
2023-09-09T02:29:52.640Z,16.89
2023-09-09T02:30:52.670Z,16.79
2023-09-09T02:31:52.698Z,16.79
2023-09-09T02:32:52.789Z,16.69
2023-09-09T02:33:52.826Z,16.69
2023-09-09T02:34:52.665Z,16.69
2023-09-09T02:35:52.723Z,16.79
2023-09-09T02:36:52.582Z,16.79
2023-09-09T02:37:52.674Z,16.69
2023-09-09T02:38:52.580Z,16.79
2023-09-09T02:39:52.605Z,16.79
2023-09-09T02:40:52.565Z,16.79
2023-09-09T02:41:52.587Z,16.89
2023-09-09T02:42:52.663Z,16.89
2023-09-09T02:43:52.621Z,16.79
2023-09-09T02:44:52.606Z,16.79
2023-09-09T02:45:52.577Z,16.79
2023-09-09T02:46:52.616Z,16.89
2023-09-09T02:47:52.593Z,16.89
2023-09-09T02:48:52.575Z,16.79
2023-09-09T02:49:53.834Z,16.79
2023-09-09T02:50:52.635Z,16.79
2023-09-09T02:51:52.654Z,16.69
2023-09-09T02:52:52.603Z,16.79
2023-09-09T02:53:52.572Z,16.79
2023-09-09T02:54:52.576Z,16.69
2023-09-09T02:55:52.651Z,16.79
2023-09-09T02:56:52.581Z,16.79
2023-09-09T02:57:52.625Z,16.69
2023-09-09T02:58:52.570Z,16.69
2023-09-09T02:59:52.666Z,16.69
2023-09-09T03:00:52.797Z,16.69
2023-09-09T03:01:52.579Z,16.79
2023-09-09T03:02:52.714Z,16.69
2023-09-09T03:03:52.652Z,16.79
2023-09-09T03:04:52.642Z,16.69
2023-09-09T03:05:52.593Z,16.59
2023-09-09T03:06:52.661Z,16.59
2023-09-09T03:07:52.656Z,16.59
2023-09-09T03:08:52.656Z,16.59
2023-09-09T03:09:52.667Z,16.59
2023-09-09T03:10:52.584Z,16.59
2023-09-09T03:11:52.618Z,16.69
2023-09-09T03:12:52.593Z,16.69
2023-09-09T03:13:52.610Z,16.59
2023-09-09T03:14:52.585Z,16.59
2023-09-09T03:15:52.660Z,16.69
2023-09-09T03:16:52.671Z,16.69
2023-09-09T03:17:52.635Z,16.69
2023-09-09T03:18:52.656Z,16.69
2023-09-09T03:19:52.603Z,16.79
2023-09-09T03:20:52.675Z,16.89
2023-09-09T03:21:52.579Z,16.89
2023-09-09T03:22:52.752Z,16.89
2023-09-09T03:23:52.661Z,16.89
2023-09-09T03:24:52.650Z,16.89
2023-09-09T03:25:52.656Z,16.79
2023-09-09T03:26:52.651Z,16.69
2023-09-09T03:27:52.584Z,16.79
2023-09-09T03:28:52.592Z,16.79
2023-09-09T03:29:52.718Z,16.69
2023-09-09T03:30:52.655Z,16.69
2023-09-09T03:31:52.648Z,16.69
2023-09-09T03:32:52.692Z,16.79
2023-09-09T03:33:52.674Z,16.79
2023-09-09T03:34:52.584Z,16.69
2023-09-09T03:35:52.596Z,16.69
2023-09-09T03:36:52.591Z,16.69
2023-09-09T03:37:52.654Z,16.79
2023-09-09T03:38:52.649Z,16.79
2023-09-09T03:39:52.741Z,16.79
2023-09-09T03:40:52.659Z,16.79
2023-09-09T03:41:52.592Z,16.79
2023-09-09T03:42:52.648Z,16.79
2023-09-09T03:43:52.669Z,16.79
2023-09-09T03:44:52.597Z,16.79
2023-09-09T03:45:52.639Z,16.79
2023-09-09T03:46:52.680Z,16.69
2023-09-09T03:47:52.704Z,16.69
2023-09-09T03:48:52.718Z,16.69
2023-09-09T03:49:52.615Z,16.69
2023-09-09T03:50:52.584Z,16.59
2023-09-09T03:51:52.608Z,16.59
2023-09-09T03:52:52.620Z,16.5
2023-09-09T03:53:52.610Z,16.5
2023-09-09T03:54:52.596Z,16.4
2023-09-09T03:55:52.789Z,16.4
2023-09-09T03:56:52.644Z,16.4
2023-09-09T03:57:52.600Z,16.4
2023-09-09T03:58:52.705Z,16.4
2023-09-09T03:59:52.598Z,16.3
2023-09-09T04:00:54.281Z,16.3
2023-09-09T04:01:52.668Z,16.4
2023-09-09T04:02:52.658Z,16.3
2023-09-09T04:03:52.801Z,16.3
2023-09-09T04:04:52.661Z,16.21
2023-09-09T04:05:52.617Z,16.21
2023-09-09T04:06:52.641Z,16.3
2023-09-09T04:07:52.636Z,16.3
2023-09-09T04:08:52.596Z,16.3
2023-09-09T04:09:52.584Z,16.21
2023-09-09T04:10:52.620Z,16.3
2023-09-09T04:11:52.596Z,16.21
2023-09-09T04:12:52.693Z,16.21
2023-09-09T04:13:52.690Z,16.21
2023-09-09T04:14:52.632Z,16.21
2023-09-09T04:15:52.603Z,16.21
2023-09-09T04:16:52.734Z,16.3
2023-09-09T04:17:52.695Z,16.3
2023-09-09T04:18:52.646Z,16.21
2023-09-09T04:19:52.623Z,16.21
2023-09-09T04:20:52.665Z,16.21
2023-09-09T04:21:52.741Z,16.21
2023-09-09T04:22:52.621Z,16.21
2023-09-09T04:23:52.629Z,16.11
2023-09-09T04:24:52.681Z,16.11
2023-09-09T04:25:52.721Z,16.11
2023-09-09T04:26:52.700Z,16.11
2023-09-09T04:27:52.701Z,16.21
2023-09-09T04:28:52.714Z,16.11
2023-09-09T04:29:52.725Z,16.01
2023-09-09T04:30:52.635Z,16.11
2023-09-09T04:31:52.615Z,16.11
2023-09-09T04:32:52.741Z,16.11
2023-09-09T04:33:52.623Z,16.11
2023-09-09T04:34:52.609Z,16.11
2023-09-09T04:35:52.598Z,16.11
2023-09-09T04:36:52.754Z,16.21
2023-09-09T04:37:52.687Z,16.11
2023-09-09T04:38:52.691Z,16.21
2023-09-09T04:39:52.697Z,16.11
2023-09-09T04:40:52.694Z,16.11
2023-09-09T04:41:52.708Z,16.11
2023-09-09T04:42:52.701Z,16.11
2023-09-09T04:43:52.716Z,16.01
2023-09-09T04:44:52.714Z,15.92
2023-09-09T04:45:52.768Z,16.01
2023-09-09T04:46:52.629Z,16.01
2023-09-09T04:47:52.696Z,15.92
2023-09-09T04:48:52.623Z,15.92
2023-09-09T04:49:52.645Z,16.01
2023-09-09T04:50:52.615Z,16.01
2023-09-09T04:51:52.664Z,16.01
2023-09-09T04:52:52.690Z,15.92
2023-09-09T04:53:52.659Z,15.92
2023-09-09T04:54:52.690Z,15.92
2023-09-09T04:55:52.713Z,15.92
2023-09-09T04:56:52.704Z,16.01
2023-09-09T04:57:52.718Z,15.92
2023-09-09T04:58:52.626Z,15.92
2023-09-09T04:59:52.612Z,15.92
2023-09-09T05:00:52.672Z,15.92
2023-09-09T05:01:52.729Z,15.92
2023-09-09T05:02:52.694Z,15.83
2023-09-09T05:03:52.639Z,15.92
2023-09-09T05:04:52.698Z,15.92
2023-09-09T05:05:52.649Z,15.92
2023-09-09T05:06:52.655Z,15.92
2023-09-09T05:07:52.668Z,16.01
2023-09-09T05:08:52.793Z,16.01
2023-09-09T05:09:52.733Z,16.11
2023-09-09T05:10:52.709Z,16.01
2023-09-09T05:11:52.693Z,16.11
2023-09-09T05:12:52.714Z,16.11
2023-09-09T05:13:52.621Z,16.11
2023-09-09T05:14:52.639Z,16.11
2023-09-09T05:15:52.612Z,16.11
2023-09-09T05:16:52.661Z,16.01
2023-09-09T05:17:52.751Z,16.01
2023-09-09T05:18:52.642Z,16.01
2023-09-09T05:19:52.676Z,16.01
2023-09-09T05:20:52.662Z,16.11
2023-09-09T05:21:52.652Z,16.11
2023-09-09T05:22:52.682Z,16.21
2023-09-09T05:23:52.663Z,16.21
2023-09-09T05:24:52.690Z,16.21
2023-09-09T05:25:52.787Z,16.21
2023-09-09T05:26:52.625Z,16.3
2023-09-09T05:27:52.697Z,16.3
2023-09-09T05:28:52.606Z,16.3
2023-09-09T05:29:52.664Z,16.4
2023-09-09T05:30:52.721Z,16.4
2023-09-09T05:31:52.730Z,16.5
2023-09-09T05:32:52.784Z,16.5
2023-09-09T05:33:52.835Z,16.5
2023-09-09T05:34:52.644Z,16.5
2023-09-09T05:35:52.638Z,16.5
2023-09-09T05:36:52.634Z,16.5
2023-09-09T05:37:52.661Z,16.59
2023-09-09T05:38:52.609Z,16.59
2023-09-09T05:39:52.676Z,16.59
2023-09-09T05:40:52.710Z,16.59
2023-09-09T05:41:52.669Z,16.69
2023-09-09T05:42:52.715Z,16.69
2023-09-09T05:43:52.705Z,16.59
2023-09-09T05:44:52.707Z,16.69
2023-09-09T05:45:52.797Z,16.69
2023-09-09T05:46:52.812Z,16.79
2023-09-09T05:47:52.792Z,16.89
2023-09-09T05:48:52.741Z,16.89
2023-09-09T05:49:52.774Z,16.79
2023-09-09T05:50:52.648Z,16.79
2023-09-09T05:51:52.649Z,16.89
2023-09-09T05:52:55.100Z,16.99
2023-09-09T05:53:52.795Z,16.99
2023-09-09T05:54:52.678Z,16.89
2023-09-09T05:55:52.694Z,16.89
2023-09-09T05:56:52.631Z,16.99
2023-09-09T05:57:52.789Z,16.99
2023-09-09T05:58:52.653Z,16.99
2023-09-09T05:59:52.745Z,16.89
2023-09-09T06:00:52.717Z,16.99
2023-09-09T06:01:52.790Z,16.99
2023-09-09T06:02:52.662Z,16.99
2023-09-09T06:03:52.768Z,17.09
2023-09-09T06:04:52.806Z,16.99
2023-09-09T06:05:52.784Z,17.09
2023-09-09T06:06:52.747Z,17.09
2023-09-09T06:07:52.683Z,17.19
2023-09-09T06:08:52.615Z,17.29
2023-09-09T06:09:52.618Z,17.29
2023-09-09T06:10:52.662Z,17.19
2023-09-09T06:11:52.708Z,17.29
2023-09-09T06:12:52.646Z,17.29
2023-09-09T06:13:52.674Z,17.29
2023-09-09T06:14:52.714Z,17.39
2023-09-09T06:15:52.746Z,17.39
2023-09-09T06:16:52.718Z,17.49
2023-09-09T06:17:52.749Z,17.49
2023-09-09T06:18:52.756Z,17.6
2023-09-09T06:19:52.744Z,17.6
2023-09-09T06:20:52.644Z,17.7
2023-09-09T06:21:52.748Z,17.7
2023-09-09T06:22:52.785Z,17.7
2023-09-09T06:23:52.628Z,17.7
2023-09-09T06:24:52.663Z,17.7
2023-09-09T06:25:52.620Z,17.7
2023-09-09T06:26:52.640Z,17.7
2023-09-09T06:27:52.733Z,17.6
2023-09-09T06:28:52.749Z,17.7
2023-09-09T06:29:52.735Z,17.7
2023-09-09T06:30:52.749Z,17.8
2023-09-09T06:31:52.721Z,17.91
2023-09-09T06:32:52.737Z,18.01
2023-09-09T06:33:52.724Z,18.01
2023-09-09T06:34:52.687Z,18.01
2023-09-09T06:35:52.649Z,18.01
2023-09-09T06:36:52.666Z,18.12
2023-09-09T06:37:52.623Z,18.12
2023-09-09T06:38:52.786Z,18.33
2023-09-09T06:39:52.666Z,18.33
2023-09-09T06:40:52.671Z,18.22
2023-09-09T06:41:52.659Z,18.43
2023-09-09T06:42:52.674Z,18.43
2023-09-09T06:43:52.717Z,18.33
2023-09-09T06:44:52.695Z,18.22
2023-09-09T06:45:52.726Z,18.33
2023-09-09T06:46:52.703Z,18.43
2023-09-09T06:47:52.846Z,18.54
2023-09-09T06:48:52.645Z,18.65
2023-09-09T06:49:52.619Z,18.65
2023-09-09T06:50:52.742Z,18.65
2023-09-09T06:51:52.651Z,18.54
2023-09-09T06:52:52.747Z,18.43
2023-09-09T06:53:52.719Z,18.43
2023-09-09T06:54:52.766Z,18.43
2023-09-09T06:55:52.790Z,18.43
2023-09-09T06:56:52.679Z,18.43
2023-09-09T06:57:52.665Z,18.43
2023-09-09T06:58:52.623Z,18.43
2023-09-09T06:59:52.628Z,18.33
2023-09-09T07:00:52.676Z,18.43
2023-09-09T07:01:52.644Z,18.65
2023-09-09T07:02:52.726Z,18.65
2023-09-09T07:03:52.782Z,18.65
2023-09-09T07:04:52.687Z,18.76
2023-09-09T07:05:52.755Z,18.65
2023-09-09T07:07:09.731Z,18.65
2023-09-09T07:07:52.656Z,18.76
2023-09-09T07:08:52.769Z,18.98
2023-09-09T07:09:52.658Z,18.98
2023-09-09T07:10:52.768Z,19.09
2023-09-09T07:11:52.699Z,19.01
2023-09-09T07:12:52.635Z,19.16
2023-09-09T07:13:52.680Z,18.92
2023-09-09T07:14:52.762Z,18.88
2023-09-09T07:15:52.777Z,18.95
2023-09-09T07:16:52.647Z,19.07
2023-09-09T07:17:52.708Z,18.87
2023-09-09T07:18:52.748Z,18.72
2023-09-09T07:19:52.684Z,18.56
2023-09-09T07:20:52.639Z,18.51
2023-09-09T07:21:52.752Z,18.69
2023-09-09T07:22:52.629Z,18.7
2023-09-09T07:23:52.631Z,18.75
2023-09-09T07:24:52.713Z,18.95
2023-09-09T07:25:52.734Z,19.01
2023-09-09T07:26:52.871Z,19.38
2023-09-09T07:27:52.805Z,19.23
2023-09-09T07:28:52.698Z,19.1
2023-09-09T07:29:52.857Z,19.17
2023-09-09T07:30:52.731Z,19.16
2023-09-09T07:31:52.808Z,19.01
2023-09-09T07:32:52.776Z,18.69
2023-09-09T07:33:52.804Z,18.63
2023-09-09T07:34:52.787Z,18.87
2023-09-09T07:35:52.880Z,18.86
2023-09-09T07:36:52.725Z,18.99
2023-09-09T07:37:52.758Z,18.98
2023-09-09T07:38:52.770Z,19.07
2023-09-09T07:39:52.849Z,19.51
2023-09-09T07:40:52.868Z,19.06
2023-09-09T07:41:52.813Z,19.04
2023-09-09T07:42:53.778Z,19.15
2023-09-09T07:43:52.751Z,19.13
2023-09-09T07:44:52.680Z,19.22
2023-09-09T07:45:52.779Z,19.03
2023-09-09T07:46:52.726Z,19.05
2023-09-09T07:47:52.755Z,19.08
2023-09-09T07:48:52.823Z,19.19
2023-09-09T07:49:52.638Z,19.05
2023-09-09T07:50:52.785Z,19.1
2023-09-09T07:51:52.837Z,19.28
2023-09-09T07:52:52.744Z,19.32
2023-09-09T07:53:52.796Z,20
2023-09-09T07:54:52.768Z,20.23
2023-09-09T07:55:52.665Z,19.61
2023-09-09T07:56:52.663Z,19.9
2023-09-09T07:57:52.656Z,20.23
2023-09-09T07:58:52.925Z,19.89
2023-09-09T07:59:52.734Z,19.84
2023-09-09T08:00:52.673Z,19.56
2023-09-09T08:01:52.694Z,19.61
2023-09-09T08:02:52.770Z,19.48
2023-09-09T08:03:52.842Z,19.58
2023-09-09T08:04:52.748Z,19.64
2023-09-09T08:05:53.229Z,19.68
2023-09-09T08:06:52.651Z,19.6
2023-09-09T08:07:52.745Z,19.55
2023-09-09T08:08:52.752Z,19.68
2023-09-09T08:09:52.712Z,19.71
2023-09-09T08:10:52.676Z,19.67
2023-09-09T08:11:52.679Z,19.71
2023-09-09T08:12:52.729Z,19.81
2023-09-09T08:13:52.670Z,19.7
2023-09-09T08:14:52.687Z,19.99
2023-09-09T08:15:52.911Z,19.49
2023-09-09T08:16:52.813Z,19.29
2023-09-09T08:17:52.749Z,19.4
2023-09-09T08:18:52.723Z,19.36
2023-09-09T08:19:52.662Z,19.58
2023-09-09T08:20:52.775Z,19.97
2023-09-09T08:21:52.741Z,20.15
2023-09-09T08:22:52.735Z,20.08
2023-09-09T08:23:52.751Z,20.12
2023-09-09T08:24:52.691Z,20.5
2023-09-09T08:25:52.766Z,20.24
2023-09-09T08:26:52.765Z,19.87
2023-09-09T08:27:52.656Z,19.49
2023-09-09T08:28:52.689Z,19.71
2023-09-09T08:29:52.676Z,19.53
2023-09-09T08:30:52.749Z,19.55
2023-09-09T08:31:52.837Z,20.23
2023-09-09T08:32:52.810Z,19.89
2023-09-09T08:33:52.717Z,20.34
2023-09-09T08:34:52.727Z,20
2023-09-09T08:35:52.668Z,20.16
2023-09-09T08:36:52.726Z,20.34
2023-09-09T08:37:52.743Z,20.11
2023-09-09T08:38:52.801Z,20.03
2023-09-09T08:39:52.793Z,20.18
2023-09-09T08:40:52.820Z,20.21
2023-09-09T08:41:52.801Z,20.28
2023-09-09T08:42:52.657Z,20.09
2023-09-09T08:43:52.674Z,20.09
2023-09-09T08:44:52.728Z,20
2023-09-09T08:45:52.677Z,20
2023-09-09T08:46:52.650Z,20.04
2023-09-09T08:47:52.860Z,20.74
2023-09-09T08:48:53.075Z,20.14
2023-09-09T08:49:52.652Z,20.34
2023-09-09T08:50:52.734Z,19.88
2023-09-09T08:51:52.659Z,19.33
2023-09-09T08:52:52.661Z,19.82
2023-09-09T08:53:52.685Z,19.86
2023-09-09T08:54:52.707Z,19.95
2023-09-09T08:55:52.720Z,20.14
2023-09-09T08:56:52.774Z,20.41
2023-09-09T08:57:52.812Z,19.98
2023-09-09T08:58:52.699Z,19.58
2023-09-09T08:59:52.685Z,19.98
2023-09-09T09:00:52.798Z,19.95
2023-09-09T09:01:52.764Z,19.62
2023-09-09T09:02:52.752Z,19.56
2023-09-09T09:03:52.892Z,19.82
2023-09-09T09:04:52.720Z,19.81
2023-09-09T09:05:52.714Z,19.9
2023-09-09T09:06:52.760Z,19.9
2023-09-09T09:07:52.758Z,20.05
2023-09-09T09:08:52.747Z,20.05
2023-09-09T09:09:52.740Z,20.13
2023-09-09T09:10:52.785Z,19.71
2023-09-09T09:11:52.775Z,19.82
2023-09-09T09:12:52.758Z,19.44
2023-09-09T09:13:52.802Z,19.57
2023-09-09T09:14:52.668Z,19.48
2023-09-09T09:15:52.682Z,19.34
2023-09-09T09:16:52.687Z,19.04
2023-09-09T09:17:52.745Z,18.93
2023-09-09T09:18:52.667Z,18.55
2023-09-09T09:19:52.710Z,18.55
2023-09-09T09:20:52.763Z,18.99
2023-09-09T09:21:52.716Z,18.45
2023-09-09T09:22:52.716Z,18.6
2023-09-09T09:23:52.728Z,18.77
2023-09-09T09:24:52.741Z,18.92
2023-09-09T09:25:52.747Z,19.12
2023-09-09T09:26:52.763Z,19.76
2023-09-09T09:27:52.757Z,19.86
2023-09-09T09:28:52.780Z,20.13
2023-09-09T09:29:52.740Z,19.57
2023-09-09T09:30:52.704Z,19.55
2023-09-09T09:31:52.704Z,19.55
2023-09-09T09:32:52.749Z,19.84
2023-09-09T09:33:52.719Z,19.3
2023-09-09T09:34:52.819Z,19.39
2023-09-09T09:35:52.695Z,19.99
2023-09-09T09:36:52.826Z,20.39
2023-09-09T09:37:52.764Z,19.82
2023-09-09T09:38:52.735Z,19.93
2023-09-09T09:39:52.737Z,19.55
2023-09-09T09:40:52.759Z,19.39
2023-09-09T09:41:52.751Z,19.39
2023-09-09T09:42:52.736Z,19.7
2023-09-09T09:43:52.772Z,19.59
2023-09-09T09:44:52.771Z,19.43
2023-09-09T09:45:52.729Z,20.28
2023-09-09T09:46:52.825Z,20.31
2023-09-09T09:47:52.837Z,20.06
2023-09-09T09:48:52.699Z,20.5
2023-09-09T09:49:52.703Z,20.88
2023-09-09T09:50:52.721Z,20.86
2023-09-09T09:51:52.767Z,20.41
2023-09-09T09:52:52.829Z,21.01
2023-09-09T09:53:52.731Z,20.98
2023-09-09T09:54:52.685Z,20.79
2023-09-09T09:55:52.748Z,20.85
2023-09-09T09:56:52.749Z,20.5
2023-09-09T09:57:54.356Z,21.07
2023-09-09T09:58:52.736Z,20.69
2023-09-09T09:59:52.771Z,20.08
2023-09-09T10:00:52.806Z,20.72
2023-09-09T10:01:52.802Z,21.09
2023-09-09T10:02:52.866Z,21.45
2023-09-09T10:03:52.838Z,20.75
2023-09-09T10:04:52.695Z,20.34
2023-09-09T10:05:52.695Z,20.66
2023-09-09T10:06:52.745Z,20.72
2023-09-09T10:07:52.681Z,20.67
2023-09-09T10:08:52.680Z,20.81
2023-09-09T10:09:52.784Z,20.23
2023-09-09T10:10:52.787Z,20.07
2023-09-09T10:11:52.698Z,19.76
2023-09-09T10:12:52.775Z,19.65
2023-09-09T10:13:52.756Z,19.71
2023-09-09T10:14:52.742Z,19.79
2023-09-09T10:15:52.751Z,20.01
2023-09-09T10:16:52.787Z,20.04
2023-09-09T10:17:52.807Z,19.63
2023-09-09T10:18:52.685Z,19.71
2023-09-09T10:19:52.736Z,19.44
2023-09-09T10:20:52.761Z,19.6
2023-09-09T10:21:52.751Z,20.19
2023-09-09T10:22:52.814Z,19.96
2023-09-09T10:23:52.763Z,20.2
2023-09-09T10:24:52.687Z,19.98
2023-09-09T10:25:52.786Z,20.06
2023-09-09T10:26:52.781Z,19.84
2023-09-09T10:27:52.732Z,20.09
2023-09-09T10:28:52.722Z,19.74
2023-09-09T10:29:52.714Z,19.44
2023-09-09T10:30:52.746Z,19.2
2023-09-09T10:31:52.719Z,19.66
2023-09-09T10:32:52.731Z,19.66
2023-09-09T10:33:52.764Z,18.93
2023-09-09T10:34:52.793Z,18.78
2023-09-09T10:35:52.833Z,18.86
2023-09-09T10:37:01.635Z,19.33
2023-09-09T10:37:52.693Z,19.22
2023-09-09T10:38:52.707Z,18.85
2023-09-09T10:39:52.739Z,19.2
2023-09-09T10:40:52.778Z,19.68
2023-09-09T10:41:52.751Z,19.17
2023-09-09T10:42:52.788Z,19.25
2023-09-09T10:43:52.794Z,19.41
2023-09-09T10:44:52.700Z,19.79
2023-09-09T10:45:52.748Z,19.71
2023-09-09T10:46:52.709Z,19.65
2023-09-09T10:47:52.772Z,19.55
2023-09-09T10:48:52.685Z,19.66
2023-09-09T10:49:53.224Z,19.77
2023-09-09T10:50:53.819Z,20.59
2023-09-09T10:51:52.989Z,20.23
2023-09-09T10:52:56.115Z,19.95
2023-09-09T10:53:52.742Z,19.7
2023-09-09T10:54:52.707Z,19.51
2023-09-09T10:55:52.829Z,19.38
2023-09-09T10:56:52.941Z,19.55
2023-09-09T10:57:52.967Z,19.53
2023-09-09T10:58:52.787Z,19.5
2023-09-09T10:59:52.960Z,19.64
2023-09-09T11:00:52.880Z,19.78
2023-09-09T11:01:53.165Z,19.76
2023-09-09T11:02:52.740Z,19.63
2023-09-09T11:03:52.744Z,19.66
2023-09-09T11:04:52.897Z,20.06
2023-09-09T11:05:52.782Z,19.92
2023-09-09T11:06:52.848Z,19.76
2023-09-09T11:07:52.725Z,19.86
2023-09-09T11:08:52.753Z,20.14
2023-09-09T11:09:52.867Z,20
2023-09-09T11:10:52.779Z,19.77
2023-09-09T11:11:55.244Z,19.91
2023-09-09T11:12:52.772Z,20.08
2023-09-09T11:13:52.708Z,20.01
2023-09-09T11:14:52.805Z,19.76
2023-09-09T11:15:52.740Z,20.19
2023-09-09T11:16:52.828Z,20.05
2023-09-09T11:17:52.761Z,20.01
2023-09-09T11:18:52.829Z,20.18
2023-09-09T11:19:52.765Z,20.11
2023-09-09T11:20:52.725Z,19.99
2023-09-09T11:21:52.751Z,20.01
2023-09-09T11:22:52.848Z,19.92
2023-09-09T11:23:52.835Z,20.41
2023-09-09T11:24:52.753Z,20.31
2023-09-09T11:25:52.752Z,20.06
2023-09-09T11:26:52.756Z,20.15
2023-09-09T11:27:52.818Z,20.2
2023-09-09T11:28:52.888Z,19.79
2023-09-09T11:29:52.707Z,20.02
2023-09-09T11:30:52.788Z,20.55
2023-09-09T11:31:52.807Z,19.81
2023-09-09T11:32:52.776Z,20.02
2023-09-09T11:33:52.815Z,20.14
2023-09-09T11:34:52.835Z,20.48
2023-09-09T11:35:52.717Z,19.71
2023-09-09T11:36:52.848Z,19.87
2023-09-09T11:37:52.739Z,20.15
2023-09-09T11:38:52.849Z,20.23
2023-09-09T11:39:52.748Z,19.93
2023-09-09T11:40:52.753Z,20.29
2023-09-09T11:41:52.760Z,19.76
2023-09-09T11:42:52.763Z,19.58
2023-09-09T11:43:52.781Z,19.38
2023-09-09T11:44:52.811Z,19.52
2023-09-09T11:45:52.789Z,19.99
2023-09-09T11:46:52.819Z,20.13
2023-09-09T11:47:52.816Z,19.74
2023-09-09T11:48:52.844Z,19.39
2023-09-09T11:49:52.814Z,19.91
2023-09-09T11:50:52.728Z,19.89
2023-09-09T11:51:52.842Z,20.11
2023-09-09T11:52:52.876Z,19.69
2023-09-09T11:53:52.734Z,19.44
2023-09-09T11:54:52.859Z,20.24
2023-09-09T11:55:52.849Z,19.44
2023-09-09T11:56:52.763Z,19.65
2023-09-09T11:57:52.771Z,19.61
2023-09-09T11:58:52.722Z,19.46
2023-09-09T11:59:54.476Z,19.67
2023-09-09T12:00:52.790Z,19.23
2023-09-09T12:01:52.851Z,19.42
2023-09-09T12:02:52.812Z,19.29
2023-09-09T12:03:52.833Z,19.2
2023-09-09T12:04:52.820Z,19.6
2023-09-09T12:05:52.827Z,19.33
2023-09-09T12:06:52.836Z,19.4
2023-09-09T12:07:52.884Z,19.49
2023-09-09T12:08:52.735Z,20.13
2023-09-09T12:09:52.752Z,19.6
2023-09-09T12:10:52.859Z,19.56
2023-09-09T12:11:52.871Z,20.16
2023-09-09T12:12:52.754Z,19.22
2023-09-09T12:13:52.787Z,19.12
2023-09-09T12:14:52.779Z,18.95
2023-09-09T12:16:00.501Z,19.32
2023-09-09T12:16:52.810Z,19.25
2023-09-09T12:17:52.856Z,19.27
2023-09-09T12:18:52.905Z,19.07
2023-09-09T12:19:52.800Z,18.97
2023-09-09T12:20:52.744Z,19.23
2023-09-09T12:21:52.816Z,19.65
2023-09-09T12:22:52.734Z,19.42
2023-09-09T12:23:52.768Z,19.57
2023-09-09T12:24:52.751Z,19.65
2023-09-09T12:25:52.726Z,19.31
2023-09-09T12:26:52.817Z,19.39
2023-09-09T12:27:52.794Z,18.96
2023-09-09T12:28:54.013Z,18.7
2023-09-09T12:29:52.742Z,18.69
2023-09-09T12:30:52.756Z,19.03
2023-09-09T12:31:52.922Z,18.99
2023-09-09T12:32:52.740Z,19.02
2023-09-09T12:33:52.762Z,19.06
2023-09-09T12:34:52.727Z,18.87
2023-09-09T12:35:52.813Z,19.54
2023-09-09T12:36:52.768Z,19.59
2023-09-09T12:37:52.770Z,18.78
2023-09-09T12:38:52.750Z,18.39
2023-09-09T12:39:52.742Z,18.77
2023-09-09T12:40:52.737Z,18.68
2023-09-09T12:41:52.746Z,18.55
2023-09-09T12:42:52.739Z,18.96
2023-09-09T12:43:52.921Z,18.86
2023-09-09T12:44:52.781Z,18.7
2023-09-09T12:45:52.833Z,18.75
2023-09-09T12:46:52.857Z,18.79
2023-09-09T12:47:52.923Z,18.48
2023-09-09T12:48:52.789Z,18.66
2023-09-09T12:49:52.898Z,18.57
2023-09-09T12:50:52.750Z,17.8
2023-09-09T12:51:52.858Z,18.86
2023-09-09T12:52:52.785Z,19.09
2023-09-09T12:53:52.842Z,19.26
2023-09-09T12:54:52.742Z,19.01
2023-09-09T12:55:52.745Z,18.49
2023-09-09T12:56:52.769Z,18.35
2023-09-09T12:57:52.773Z,18.02
2023-09-09T12:58:52.761Z,17.84